Time;durP1;ratioP1;P1;durP2;ratioP2;P2;SDS_P1;SDS_P2;PMS_P1;PMS_P2;Temp;Humidity;BMP_temperature;BMP_pressure;BME280_temperature;BME280_humidity;BME280_pressure;Samples;Min_cycle;Max_cycle;Signal;HPM_P1;HPM_P2
2022/07/05 00:01:39;;;;;;;5.12;2.20;;;;;;;25.86;53.42;99183.59;4453209;32;33991;-81
2022/07/05 00:04:07;;;;;;;5.50;2.30;;;;;;;26.15;52.31;99179.66;4455058;32;35118;-81
2022/07/05 00:06:35;;;;;;;3.15;2.50;;;;;;;25.91;52.79;99173.41;4440294;32;34605;-80
2022/07/05 00:09:03;;;;;;;4.43;2.17;;;;;;;25.74;53.06;99168.53;4455009;32;34146;-81
2022/07/05 00:11:31;;;;;;;5.12;2.72;;;;;;;25.77;52.86;99167.47;4440523;32;33971;-80
2022/07/05 00:13:59;;;;;;;3.65;2.00;;;;;;;25.78;52.75;99163.81;4470144;32;33423;-80
2022/07/05 00:16:26;;;;;;;3.10;2.20;;;;;;;25.54;53.22;99157.56;4465388;32;35285;-80
2022/07/05 00:18:55;;;;;;;2.37;1.80;;;;;;;25.31;53.70;99156.63;4468813;32;33673;-80
2022/07/05 00:21:22;;;;;;;4.75;2.33;;;;;;;25.47;53.30;99145.66;4469421;32;34831;-81
2022/07/05 00:23:50;;;;;;;3.17;2.00;;;;;;;25.11;54.05;99138.56;4455153;32;35092;-81
2022/07/05 00:26:18;;;;;;;2.92;2.03;;;;;;;25.43;53.03;99144.22;4464376;32;35334;-80
2022/07/05 00:28:46;;;;;;;3.72;2.05;;;;;;;25.29;53.27;99142.56;4453598;32;33519;-80
2022/07/05 00:31:14;;;;;;;2.17;1.80;;;;;;;25.15;53.74;99135.56;4470466;32;33791;-80
2022/07/05 00:33:42;;;;;;;4.37;2.33;;;;;;;25.27;53.03;99128.53;4468808;32;35052;-80
2022/07/05 00:36:09;;;;;;;2.70;1.80;;;;;;;24.94;54.07;99132.69;4470154;32;34443;-81
2022/07/05 00:38:37;;;;;;;3.00;2.05;;;;;;;25.41;52.77;99139.94;4450423;32;33678;-81
2022/07/05 00:41:06;;;;;;;4.47;1.87;;;;;;;25.36;52.82;99132.31;4453929;32;34620;-81
2022/07/05 00:43:33;;;;;;;2.83;1.90;;;;;;;24.71;54.73;99137.03;4455003;32;35181;-81
2022/07/05 00:46:01;;;;;;;7.62;2.35;;;;;;;25.39;52.30;99134.72;4466064;32;35151;-81
2022/07/05 00:48:30;;;;;;;2.22;1.73;;;;;;;24.63;54.42;99131.41;4458520;32;33554;-81
2022/07/05 00:50:57;;;;;;;3.92;1.90;;;;;;;24.82;53.76;99127.41;4454917;32;33969;-81
2022/07/05 00:53:25;;;;;;;2.28;1.85;;;;;;;25.00;53.16;99120.72;4464711;32;35038;-81
2022/07/05 00:55:53;;;;;;;2.72;1.85;;;;;;;24.95;53.45;99128.19;4470513;32;35317;-80
2022/07/05 00:58:21;;;;;;;7.78;2.15;;;;;;;25.16;52.74;99142.59;4468787;32;34147;-81
2022/07/05 01:00:49;;;;;;;3.65;2.15;;;;;;;25.01;53.11;99130.44;4456214;32;33921;-81
2022/07/05 01:03:17;;;;;;;5.30;2.03;;;;;;;25.17;52.67;99117.66;4468460;32;35139;-80
2022/07/05 01:05:45;;;;;;;3.00;1.85;;;;;;;24.89;53.67;99126.00;4456544;32;35339;-81
2022/07/05 01:08:13;;;;;;;8.15;2.00;;;;;;;25.11;53.02;99126.13;4452692;32;33002;-80
2022/07/05 01:10:41;;;;;;;3.50;1.83;;;;;;;24.64;54.36;99127.78;4454554;32;33923;-80
2022/07/05 01:13:09;;;;;;;2.85;1.65;;;;;;;24.93;53.37;99125.66;4446371;32;35895;-80
2022/07/05 01:15:37;;;;;;;5.43;2.00;;;;;;;24.96;53.10;99122.75;4440708;32;35339;-81
2022/07/05 01:18:05;;;;;;;4.95;1.60;;;;;;;24.97;52.84;99127.13;4447920;32;33431;-80
2022/07/05 01:20:33;;;;;;;4.25;2.03;;;;;;;24.97;52.55;99121.81;4449863;32;34772;-80
2022/07/05 01:23:02;;;;;;;2.60;1.98;;;;;;;25.10;52.16;99123.56;4439900;32;35897;-80
2022/07/05 01:25:31;;;;;;;3.45;1.83;;;;;;;24.99;52.43;99121.69;4440552;32;34524;-80
2022/07/05 01:28:00;;;;;;;3.30;2.12;;;;;;;25.22;51.35;99117.31;4446358;32;31813;-80
2022/07/05 01:30:28;;;;;;;2.40;1.70;;;;;;;25.02;51.85;99116.13;4469742;32;33922;-81
2022/07/05 01:32:56;;;;;;;5.97;1.70;;;;;;;25.23;50.80;99111.00;4468094;32;35009;-80
2022/07/05 01:35:24;;;;;;;2.22;1.73;;;;;;;24.71;51.99;99123.72;4469562;32;34435;-81
2022/07/05 01:37:52;;;;;;;7.10;1.95;;;;;;;25.03;50.87;99117.84;4460198;32;33557;-81
2022/07/05 01:40:21;;;;;;;2.58;1.77;;;;;;;25.04;50.51;99124.00;4454387;32;34025;-81
2022/07/05 01:42:49;;;;;;;3.85;1.67;;;;;;;25.33;49.41;99111.22;4458442;32;34913;-80
2022/07/05 01:48:07;;;;;;;2.42;1.67;;;;;;;25.42;48.98;99105.16;4460218;32;33609;-80
2022/07/05 01:50:45;;;;;;;2.65;1.80;;;;;;;25.53;48.65;99107.00;4455685;32;33820;-81
2022/07/05 01:53:27;;;;;;;2.92;1.83;;;;;;;25.04;49.75;99106.19;4450042;32;35130;-81
2022/07/05 01:56:03;;;;;;;2.42;1.65;;;;;;;25.50;48.16;99099.25;4442820;32;34545;-81
2022/07/05 01:58:32;;;;;;;2.83;1.70;;;;;;;25.52;47.47;99111.50;4445342;32;33413;-81
2022/07/05 02:01:00;;;;;;;4.53;1.80;;;;;;;25.52;47.41;99108.84;4439251;32;33868;-81
2022/07/05 02:03:29;;;;;;;2.60;1.60;;;;;;;25.60;47.19;99112.72;4462249;32;35035;-81
2022/07/05 02:06:18;;;;;;;3.08;1.67;;;;;;;26.05;45.70;99112.84;4458195;32;34427;-81
2022/07/05 02:08:47;;;;;;;4.75;1.77;;;;;;;25.67;46.30;99108.63;4467702;32;34174;-80
2022/07/05 02:11:15;;;;;;;2.78;1.65;;;;;;;25.31;46.77;99102.50;4469239;32;33861;-80
2022/07/05 02:13:43;;;;;;;2.25;1.60;;;;;;;25.68;45.88;99105.00;4454055;32;35920;-81
2022/07/05 02:16:11;;;;;;;2.75;1.80;;;;;;;25.52;45.98;99098.19;4469150;32;35174;-81
2022/07/05 02:18:40;;;;;;;3.05;1.80;;;;;;;25.77;45.61;99096.28;4467691;32;33304;-81
2022/07/05 02:21:08;;;;;;;4.30;1.62;;;;;;;26.00;45.16;99088.34;4455228;32;33929;-81
2022/07/05 02:23:36;;;;;;;2.37;1.60;;;;;;;26.53;43.97;99087.69;4453466;32;35897;-81
2022/07/05 02:26:04;;;;;;;2.62;1.50;;;;;;;25.84;45.54;99081.50;4469297;32;34445;-81
2022/07/05 02:28:33;;;;;;;2.70;1.73;;;;;;;25.79;45.82;99086.34;4468099;32;34308;-81
2022/07/05 02:31:01;;;;;;;4.62;1.75;;;;;;;25.97;45.66;99094.75;4468985;32;33812;-81
2022/07/05 02:33:29;;;;;;;2.08;1.67;;;;;;;25.92;45.82;99097.75;4460951;32;35226;-81
2022/07/05 02:35:58;;;;;;;2.42;1.90;;;;;;;25.87;46.11;99101.72;4452986;32;34468;-81
2022/07/05 02:38:25;;;;;;;2.25;1.77;;;;;;;26.38;45.11;99095.09;4460390;32;33559;-80
2022/07/05 02:40:54;;;;;;;3.30;1.83;;;;;;;25.69;46.81;99101.34;4442971;32;34615;-81
2022/07/05 02:43:22;;;;;;;3.10;1.77;;;;;;;25.43;47.74;99106.88;4445843;32;35003;-81
2022/07/05 02:45:50;;;;;;;4.75;2.08;;;;;;;25.42;48.36;99107.84;4470714;32;34375;-81
2022/07/05 02:48:18;;;;;;;3.58;2.00;;;;;;;25.75;47.92;99116.91;4469827;32;33766;-81
2022/07/05 02:50:47;;;;;;;3.45;1.90;;;;;;;25.81;48.12;99119.06;4463271;32;35009;-80
2022/07/05 02:53:15;;;;;;;2.55;1.80;;;;;;;25.48;49.19;99107.38;4469935;32;35747;-81
2022/07/05 02:55:43;;;;;;;4.90;1.90;;;;;;;25.60;49.17;99104.75;4456909;32;34187;-80
2022/07/05 02:58:11;;;;;;;3.40;1.85;;;;;;;25.61;49.14;99101.13;4469423;32;33771;-82
2022/07/05 03:00:39;;;;;;;3.22;1.95;;;;;;;25.50;49.36;99091.25;4464764;32;33923;-81
2022/07/05 03:03:08;;;;;;;2.75;1.98;;;;;;;25.53;49.44;99094.53;4458987;32;35044;-80
2022/07/05 03:05:36;;;;;;;3.65;2.25;;;;;;;25.66;49.47;99093.59;4457304;32;34997;-80
2022/07/05 03:08:04;;;;;;;7.30;2.25;;;;;;;25.39;50.34;99097.41;4443021;32;32660;-81
2022/07/05 03:10:33;;;;;;;2.90;2.00;;;;;;;25.49;50.46;99095.75;4471081;32;32697;-81
2022/07/05 03:13:02;;;;;;;2.75;2.00;;;;;;;25.22;51.55;99105.78;4447778;32;35115;-81
2022/07/05 03:15:30;;;;;;;3.53;2.22;;;;;;;25.16;51.85;99094.63;4441288;32;34510;-80
2022/07/05 03:17:58;;;;;;;3.60;2.37;;;;;;;25.43;51.51;99096.22;4456187;32;33567;-80
2022/07/05 03:20:27;;;;;;;6.62;2.20;;;;;;;25.53;51.20;99094.53;4457068;32;34535;-81
2022/07/05 03:22:55;;;;;;;6.35;2.80;;;;;;;25.65;50.94;99089.22;4469652;32;35858;-81
2022/07/05 03:25:24;;;;;;;4.37;1.90;;;;;;;25.38;51.78;99092.19;4444084;32;34106;-81
2022/07/05 03:27:53;;;;;;;4.07;2.10;;;;;;;24.95;53.18;99106.88;4469623;32;33499;-81
2022/07/05 03:30:22;;;;;;;5.53;1.85;;;;;;;24.69;54.02;99112.34;4457072;32;33910;-81
2022/07/05 03:32:51;;;;;;;4.22;2.25;;;;;;;24.46;54.92;99118.41;4451478;32;34975;-81
2022/07/05 03:35:19;;;;;;;4.03;2.22;;;;;;;24.85;53.72;99120.06;4470670;32;35043;-80
2022/07/05 03:37:48;;;;;;;3.08;2.10;;;;;;;24.98;53.49;99130.66;4455704;32;33663;-80
2022/07/05 03:40:17;;;;;;;3.22;2.37;;;;;;;24.99;53.60;99135.03;4457123;32;33548;-81
2022/07/05 03:42:45;;;;;;;4.37;2.08;;;;;;;25.13;53.44;99137.50;4469385;32;35281;-80
2022/07/05 03:45:13;;;;;;;3.87;2.28;;;;;;;24.95;53.95;99141.53;4470965;32;34540;-80
2022/07/05 03:47:42;;;;;;;2.75;2.10;;;;;;;25.04;53.72;99140.84;4469357;32;34274;-80
2022/07/05 03:50:10;;;;;;;4.12;2.28;;;;;;;24.94;54.03;99146.00;4470938;32;34021;-81
2022/07/05 03:52:39;;;;;;;2.45;2.00;;;;;;;24.90;54.04;99141.00;4449711;32;35895;-80
2022/07/05 03:55:08;;;;;;;5.32;2.30;;;;;;;24.73;54.55;99143.09;4470700;32;34524;-81
2022/07/05 03:57:36;;;;;;;3.90;2.20;;;;;;;24.82;54.27;99143.41;4469274;32;32968;-80
2022/07/05 04:00:05;;;;;;;4.72;2.10;;;;;;;24.55;54.65;99144.44;4454674;32;33918;-80
2022/07/05 04:02:39;;;;;;;3.12;2.25;;;;;;;24.45;54.84;99141.53;4454314;32;35218;-80
2022/07/05 04:05:09;;;;;;;2.53;1.80;;;;;;;24.46;54.64;99145.03;4470604;32;35373;-81
2022/07/05 04:07:54;;;;;;;2.75;2.08;;;;;;;24.92;53.52;99139.94;4469814;32;33615;-80
2022/07/05 04:10:23;;;;;;;5.85;2.00;;;;;;;25.02;52.56;99140.09;4441376;32;34082;-81
2022/07/05 04:12:51;;;;;;;3.20;2.20;;;;;;;24.60;53.56;99134.28;4455510;32;35812;-81
2022/07/05 04:15:19;;;;;;;3.17;1.83;;;;;;;24.81;52.77;99136.34;4456648;32;35207;-81
2022/07/05 04:17:55;;;;;;;3.20;2.03;;;;;;;24.93;52.14;99132.78;4442071;32;33627;-80
2022/07/05 04:20:24;;;;;;;4.35;2.00;;;;;;;24.99;51.82;99132.34;4428710;32;33923;-80
2022/07/05 04:22:53;;;;;;;3.37;1.80;;;;;;;24.90;51.71;99133.00;4440876;32;36103;-80
2022/07/05 04:25:21;;;;;;;3.92;2.67;;;;;;;25.21;51.31;99139.59;4456848;32;35074;-81
2022/07/05 04:27:51;;;;;;;3.08;1.52;;;;;;;25.12;51.58;99127.81;4469758;32;33255;-80
2022/07/05 04:30:21;;;;;;;3.78;1.87;;;;;;;25.47;50.21;99129.66;4441130;32;32531;-80
2022/07/05 04:32:50;;;;;;;2.22;1.80;;;;;;;25.57;50.47;99118.28;4447837;32;34782;-80
2022/07/05 04:35:18;;;;;;;3.25;2.03;;;;;;;25.49;50.77;99117.06;4470102;32;34007;-80
2022/07/05 04:37:47;;;;;;;3.05;1.92;;;;;;;25.39;51.37;99118.72;4470215;32;33458;-81
2022/07/05 04:40:15;;;;;;;2.92;1.98;;;;;;;25.26;51.54;99128.62;4461644;32;32934;-82
2022/07/05 04:42:43;;;;;;;5.10;1.62;;;;;;;25.12;51.88;99126.97;4454459;32;35837;-81
2022/07/05 04:45:12;;;;;;;4.60;2.10;;;;;;;25.10;52.17;99121.75;4455374;32;33941;-80
2022/07/05 04:47:40;;;;;;;3.67;1.95;;;;;;;25.13;51.60;99121.53;4470306;32;33349;-80
2022/07/05 04:50:08;;;;;;;2.70;1.70;;;;;;;25.21;51.56;99122.75;4462453;32;33992;-81
2022/07/05 04:52:37;;;;;;;2.58;1.80;;;;;;;25.34;51.50;99124.44;4444883;32;34846;-81
2022/07/05 04:55:05;;;;;;;2.45;1.80;;;;;;;25.57;50.81;99118.28;4467537;32;34540;-81
2022/07/05 04:57:40;;;;;;;2.15;1.60;;;;;;;25.13;51.45;99120.66;4470325;32;33392;-81
2022/07/05 05:00:10;;;;;;;6.37;1.95;;;;;;;25.58;50.29;99114.69;4468869;32;33878;-80
2022/07/05 05:02:38;;;;;;;2.78;1.87;;;;;;;25.54;50.27;99109.56;4456210;32;35057;-80
2022/07/05 05:05:06;;;;;;;3.67;1.80;;;;;;;25.40;50.51;99109.78;4454642;32;35141;-81
2022/07/05 05:07:37;;;;;;;4.32;1.90;;;;;;;25.53;50.60;99107.00;4455552;32;34046;-81
2022/07/05 05:10:05;;;;;;;3.40;1.70;;;;;;;25.64;50.35;99108.84;4468506;32;33816;-81
2022/07/05 05:12:33;;;;;;;1.62;1.42;;;;;;;25.41;50.65;99107.94;4441492;32;35251;-81
2022/07/05 05:15:02;;;;;;;5.03;1.58;;;;;;;25.48;50.02;99109.19;4466312;32;34507;-81
2022/07/05 05:17:42;;;;;;;2.33;1.62;;;;;;;25.50;49.64;99108.13;4456047;32;34246;-81
2022/07/05 05:20:15;;;;;;;3.42;1.98;;;;;;;25.66;49.35;99113.12;4456526;32;34089;-81
2022/07/05 05:22:43;;;;;;;3.35;1.73;;;;;;;26.05;48.71;99112.84;4454467;32;34717;-81
2022/07/05 05:25:12;;;;;;;3.70;1.55;;;;;;;25.73;49.38;99113.47;4453315;32;35254;-81
2022/07/05 05:27:44;;;;;;;2.72;1.80;;;;;;;25.89;49.11;99115.81;4469946;32;33786;-81
2022/07/05 05:30:19;;;;;;;5.45;2.12;;;;;;;25.68;49.75;99121.00;4466591;32;33986;-80
2022/07/05 05:32:47;;;;;;;2.22;1.70;;;;;;;25.95;48.61;99126.03;4454181;32;35736;-80
2022/07/05 05:35:20;;;;;;;6.43;1.90;;;;;;;25.92;48.37;99132.44;4452857;32;34362;-81
2022/07/05 05:37:54;;;;;;;9.25;1.85;;;;;;;25.87;48.16;99131.94;4467978;32;34283;-80
2022/07/05 05:40:24;;;;;;;2.83;1.70;;;;;;;25.94;48.94;99126.16;4468170;32;34517;-82
2022/07/05 05:42:53;;;;;;;4.60;2.25;;;;;;;25.99;47.81;99131.97;4469654;32;34193;-81
2022/07/05 05:45:21;;;;;;;2.62;1.80;;;;;;;25.85;48.67;99139.19;4468101;32;35382;-81
2022/07/05 05:47:51;;;;;;;2.67;1.80;;;;;;;25.80;49.15;99144.06;4453815;32;33563;-80
2022/07/05 05:50:25;;;;;;;2.97;1.67;;;;;;;26.07;48.18;99146.44;4452725;32;33952;-80
2022/07/05 05:52:53;;;;;;;3.75;1.77;;;;;;;25.85;48.84;99149.88;4461648;32;35059;-80
2022/07/05 05:55:22;;;;;;;2.78;1.55;;;;;;;25.78;49.51;99143.31;4440950;32;34410;-81
2022/07/05 05:57:50;;;;;;;2.20;1.62;;;;;;;25.36;50.03;99148.31;4440082;32;33589;-81
2022/07/05 06:00:19;;;;;;;5.87;1.60;;;;;;;25.82;49.08;99155.47;4452464;32;33911;-82
2022/07/05 06:02:49;;;;;;;8.98;2.10;;;;;;;25.78;49.83;99153.97;4469399;32;35042;-80
2022/07/05 06:05:17;;;;;;;12.13;2.00;;;;;;;25.82;49.54;99160.78;4443671;32;33750;-80
2022/07/05 06:07:51;;;;;;;2.80;1.70;;;;;;;25.73;49.66;99145.47;4453081;32;33834;-81
2022/07/05 06:10:30;;;;;;;3.10;1.83;;;;;;;25.62;49.81;99148.13;4439420;32;34038;-80
2022/07/05 06:13:00;;;;;;;7.62;1.70;;;;;;;25.46;50.22;99149.28;4469362;32;35909;-80
2022/07/05 06:15:27;;;;;;;2.53;1.50;;;;;;;25.69;50.13;99144.03;4440465;32;34026;-81
2022/07/05 06:17:55;;;;;;;4.05;1.70;;;;;;;25.27;51.32;99143.62;4439897;32;33625;-81
2022/07/05 06:20:25;;;;;;;1.30;1.20;;;;;;;25.41;51.39;99146.09;4466880;32;34015;-81
2022/07/05 06:22:54;;;;;;;5.62;2.08;;;;;;;25.87;49.53;99153.28;4471240;32;34316;-81
2022/07/05 06:25:22;;;;;;;3.92;1.27;;;;;;;25.80;49.84;99151.19;4455871;32;34513;-81
2022/07/05 06:28:05;;;;;;;4.43;2.35;;;;;;;26.02;50.12;99156.59;4459514;32;33572;-81
2022/07/05 06:30:36;;;;;;;3.83;1.65;;;;;;;25.92;50.16;99150.25;4468583;32;33919;-80
2022/07/05 06:33:04;;;;;;;3.05;1.42;;;;;;;26.00;48.97;99152.38;4457290;32;35889;-81
2022/07/05 06:35:32;;;;;;;3.30;1.50;;;;;;;26.41;48.77;99153.59;4469469;32;35265;-80
2022/07/05 06:38:05;;;;;;;2.12;1.52;;;;;;;26.69;47.96;99156.75;4471079;32;33414;-81
2022/07/05 06:40:35;;;;;;;5.30;1.42;;;;;;;26.97;47.89;99158.88;4468694;32;34658;-80
2022/07/05 06:43:06;;;;;;;2.00;1.25;;;;;;;27.23;46.67;99158.53;4440517;32;35158;-81
2022/07/05 06:45:36;;;;;;;1.62;1.27;;;;;;;27.23;46.48;99155.87;4465352;32;35166;-81
2022/07/05 06:48:06;;;;;;;1.95;1.33;;;;;;;26.94;47.20;99159.12;4466883;32;34264;-81
2022/07/05 06:50:36;;;;;;;1.50;1.30;;;;;;;27.28;46.83;99156.38;4469802;32;34619;-81
2022/07/05 06:53:05;;;;;;;6.07;1.65;;;;;;;27.11;47.40;99148.88;4471075;32;35979;-81
2022/07/05 06:55:33;;;;;;;1.65;1.30;;;;;;;27.09;47.92;99145.47;4469902;32;34432;-81
2022/07/05 06:58:02;;;;;;;7.35;1.90;;;;;;;27.34;47.16;99150.53;4455813;32;33537;-80
2022/07/05 07:00:40;;;;;;;3.80;1.50;;;;;;;27.80;46.87;99146.63;4457097;32;34739;-81
2022/07/05 07:03:28;;;;;;;1.65;1.40;;;;;;;28.77;44.92;99150.78;4456047;32;35853;-81
2022/07/05 07:06:16;;;;;;;2.40;1.40;;;;;;;29.00;43.80;99153.22;4455423;32;34458;-81
2022/07/05 07:11:30;;;;;;;1.48;1.37;;;;;;;28.52;43.78;99158.28;4459349;32;34604;-81
2022/07/05 07:13:58;;;;;;;1.83;1.20;;;;;;;28.32;44.46;99146.63;4457434;32;35031;-80
2022/07/05 07:16:25;;;;;;;7.87;1.52;;;;;;;27.91;44.54;99143.06;4470875;32;34881;-81
2022/07/05 07:18:54;;;;;;;3.87;1.40;;;;;;;27.07;47.09;99152.78;4469383;32;34153;-81
2022/07/05 07:21:41;;;;;;;2.97;1.35;;;;;;;27.23;46.51;99148.72;4470825;32;33908;-80
2022/07/05 07:24:09;;;;;;;3.37;1.40;;;;;;;26.97;47.04;99136.66;4452670;32;35719;-79
2022/07/05 07:29:24;;;;;;;3.95;1.75;;;;;;;26.79;47.38;99130.97;4463469;32;33173;-81
2022/07/05 07:31:52;;;;;;;4.12;1.42;;;;;;;26.95;47.71;99139.47;4470412;32;33781;-81
2022/07/05 07:34:20;;;;;;;2.40;1.50;;;;;;;26.14;49.68;99132.59;4469525;32;34904;-80
2022/07/05 07:36:49;;;;;;;1.90;1.20;;;;;;;26.34;48.67;99136.38;4456658;32;35164;-81
2022/07/05 07:39:17;;;;;;;2.55;1.25;;;;;;;26.38;49.36;99135.16;4469528;32;34144;-82
2022/07/05 07:41:45;;;;;;;8.75;1.58;;;;;;;26.07;50.13;99133.09;4455800;32;33658;-80
2022/07/05 07:44:13;;;;;;;5.68;1.77;;;;;;;26.34;49.12;99134.53;4457355;32;35912;-82
2022/07/05 07:46:41;;;;;;;1.75;1.40;;;;;;;26.09;49.39;99132.97;4470606;32;34350;-81
2022/07/05 07:49:09;;;;;;;4.25;2.20;;;;;;;26.21;49.48;99134.66;4469488;32;34391;-80
2022/07/05 07:51:38;;;;;;;2.80;1.50;;;;;;;26.33;48.86;99137.31;4470726;32;34731;-80
2022/07/05 07:54:06;;;;;;;2.25;1.30;;;;;;;26.52;49.04;99131.38;4469412;32;34718;-80
2022/07/05 07:56:34;;;;;;;1.70;1.20;;;;;;;26.03;50.13;99133.44;4467757;32;34468;-81
2022/07/05 07:59:02;;;;;;;3.40;1.40;;;;;;;25.89;50.54;99138.00;4448859;32;33050;-80
2022/07/05 08:01:31;;;;;;;2.62;1.50;;;;;;;26.14;50.75;99138.78;4446916;32;34068;-80
2022/07/05 08:03:59;;;;;;;3.90;1.30;;;;;;;26.35;49.48;99143.38;4454364;32;35742;-80
2022/07/05 08:06:27;;;;;;;5.68;1.60;;;;;;;26.42;49.58;99139.25;4454294;32;35187;-82
2022/07/05 08:08:56;;;;;;;2.10;1.40;;;;;;;26.18;50.54;99137.56;4454603;32;33564;-79
2022/07/05 08:11:24;;;;;;;4.47;1.67;;;;;;;26.34;49.99;99144.38;4456710;32;33885;-81
2022/07/05 08:13:52;;;;;;;1.98;1.40;;;;;;;26.01;50.89;99135.38;4455360;32;35095;-80
2022/07/05 08:16:20;;;;;;;2.87;1.40;;;;;;;26.15;51.45;99135.13;4454838;32;35219;-81
2022/07/05 08:21:37;;;;;;;;;;;;;;;26.74;51.20;99135.88;4455214;32;34777;-81
2022/07/05 08:24:10;;;;;;;8.85;2.53;;;;;;;27.00;49.13;99147.94;4455534;32;34519;-81
2022/07/05 08:26:39;;;;;;;4.15;1.35;;;;;;;27.63;48.25;99155.25;4470475;32;34433;-81
2022/07/05 08:29:10;;;;;;;3.58;1.30;;;;;;;27.28;48.05;99155.53;4449172;32;185506;-80
2022/07/05 08:31:44;;;;;;;4.28;1.60;;;;;;;27.30;48.63;99148.22;4456729;32;34776;-81
2022/07/05 08:34:12;;;;;;;2.95;1.12;;;;;;;27.43;47.32;99154.25;4468694;32;33487;-81
2022/07/05 08:36:43;;;;;;;1.55;1.20;;;;;;;27.52;47.02;99145.44;4469974;32;34486;-82
2022/07/05 08:39:13;;;;;;;7.70;1.83;;;;;;;27.02;47.80;99150.50;4446253;32;34408;-81
2022/07/05 08:41:42;;;;;;;5.40;1.70;;;;;;;27.04;48.08;99160.06;4445751;32;33918;-81
2022/07/05 08:44:10;;;;;;;3.28;1.48;;;;;;;26.75;49.31;99153.59;4440798;32;35902;-80
2022/07/05 08:46:40;;;;;;;1.83;1.40;;;;;;;26.69;49.98;99154.09;4456466;32;34403;-82
2022/07/05 08:49:09;;;;;;;1.40;1.30;;;;;;;26.54;50.03;99156.97;4447790;32;33456;-82
2022/07/05 08:51:41;;;;;;;3.72;1.33;;;;;;;26.54;50.19;99156.97;4470333;32;34742;-80
2022/07/05 08:54:11;;;;;;;7.95;1.50;;;;;;;26.63;50.23;99156.28;4468594;32;35926;-81
2022/07/05 08:56:44;;;;;;;6.82;1.50;;;;;;;26.44;51.49;99156.88;4442773;32;33628;-81
2022/07/05 08:59:32;;;;;;;6.28;2.05;;;;;;;26.00;51.66;99158.56;4468724;32;33471;-81
2022/07/05 09:02:01;;;;;;;4.07;1.48;;;;;;;26.41;49.73;99162.44;4456017;32;33876;-82
2022/07/05 09:04:32;;;;;;;3.28;1.60;;;;;;;25.71;51.79;99160.75;4441292;32;35210;-81
2022/07/05 09:07:07;;;;;;;3.05;1.83;;;;;;;25.62;52.77;99164.13;4455194;32;35385;-82
2022/07/05 09:09:43;;;;;;;6.60;2.03;;;;;;;25.67;52.24;99167.28;4455535;32;33564;-81
2022/07/05 09:12:13;;;;;;;7.85;2.78;;;;;;;25.46;53.32;99159.94;4463602;32;33935;-81
2022/07/05 09:14:57;;;;;;;2.37;1.75;;;;;;;25.50;53.65;99156.09;4446355;32;35033;-81
2022/07/05 09:17:27;;;;;;;3.90;1.85;;;;;;;25.28;54.63;99153.34;4469830;32;35225;-81
2022/07/05 09:20:07;;;;;;;6.07;1.80;;;;;;;25.62;53.92;99148.97;4468531;32;33788;-81
2022/07/05 09:22:47;;;;;;;3.75;1.70;;;;;;;26.17;53.76;99143.91;4455938;32;34850;-81
2022/07/05 09:25:18;;;;;;;9.57;2.15;;;;;;;25.90;53.80;99146.84;4468472;32;35879;-80
2022/07/05 09:27:55;;;;;;;4.28;1.75;;;;;;;25.71;53.44;99150.97;4469942;32;35241;-81
2022/07/05 09:30:33;;;;;;;2.70;1.55;;;;;;;25.45;53.72;99158.25;4460367;32;33745;-81
2022/07/05 09:33:03;;;;;;;4.97;1.83;;;;;;;25.76;53.84;99163.06;4453608;32;33927;-81
2022/07/05 09:35:54;;;;;;;2.72;1.73;;;;;;;25.77;53.29;99157.63;4461650;32;35875;-81
2022/07/05 09:38:28;;;;;;;9.80;2.00;;;;;;;25.89;52.61;99158.50;4456060;32;34350;-81
2022/07/05 09:40:57;;;;;;;2.53;1.55;;;;;;;25.40;54.04;99155.09;4454315;32;33294;-81
2022/07/05 09:43:27;;;;;;;13.02;2.00;;;;;;;25.33;54.30;99148.53;4469659;32;34699;-82
2022/07/05 09:45:56;;;;;;;6.95;1.77;;;;;;;24.94;55.30;99174.47;4468116;32;35864;-82
2022/07/05 09:48:29;;;;;;;6.22;2.00;;;;;;;24.92;55.23;99181.72;4455854;32;34553;-80
2022/07/05 09:51:16;;;;;;;13.15;2.60;;;;;;;24.50;57.44;99176.66;4449481;32;33325;-80
2022/07/05 09:54:04;;;;;;;4.57;1.90;;;;;;;24.21;63.38;99190.22;4440130;32;33117;-80
2022/07/05 09:56:44;;;;;;;6.40;2.10;;;;;;;23.46;67.35;99203.25;4469760;32;35141;-80
2022/07/05 09:59:19;;;;;;;2.65;1.85;;;;;;;23.58;67.86;99212.25;4457556;32;34549;-81
2022/07/05 10:01:49;;;;;;;3.25;1.80;;;;;;;23.56;65.80;99222.09;4455987;32;33500;-80
2022/07/05 10:04:18;;;;;;;3.08;1.95;;;;;;;22.95;68.53;99216.31;4441589;32;34820;-80
2022/07/05 10:06:47;;;;;;;3.67;2.37;;;;;;;22.70;69.39;99212.53;4454905;32;35722;-81
2022/07/05 10:09:15;;;;;;;4.30;2.15;;;;;;;22.36;70.78;99222.63;4455242;32;35325;-82
2022/07/05 10:11:45;;;;;;;5.47;2.22;;;;;;;22.68;70.93;99231.22;4470441;32;33308;-81
2022/07/05 10:14:18;;;;;;;3.58;2.30;;;;;;;22.70;70.51;99223.16;4457461;32;34700;-80
2022/07/05 10:16:52;;;;;;;3.40;2.50;;;;;;;22.67;71.20;99215.37;4457166;32;36308;-81
2022/07/05 10:19:21;;;;;;;2.70;2.00;;;;;;;22.50;71.79;99225.25;4457041;32;35115;-80
2022/07/05 10:21:50;;;;;;;3.25;2.08;;;;;;;22.42;72.03;99219.56;4471047;32;32155;-81
2022/07/05 10:24:38;;;;;;;6.22;2.40;;;;;;;22.63;71.30;99232.47;4464762;32;33949;-81
2022/07/05 10:27:08;;;;;;;4.28;2.72;;;;;;;22.53;71.87;99233.00;4471330;32;35966;-81
2022/07/05 10:29:37;;;;;;;12.37;2.90;;;;;;;22.32;72.59;99234.34;4455772;32;35154;-81
2022/07/05 10:32:09;;;;;;;6.18;2.65;;;;;;;22.41;71.92;99236.41;4471291;32;33608;-80
2022/07/05 10:34:39;;;;;;;6.53;2.70;;;;;;;22.28;72.51;99233.66;4469626;32;34855;-80
2022/07/05 10:37:28;;;;;;;3.60;2.30;;;;;;;22.53;71.54;99229.50;4459481;32;35132;-81
2022/07/05 10:39:59;;;;;;;4.65;2.97;;;;;;;22.58;72.01;99239.84;4469694;32;35260;-80
2022/07/05 10:42:32;;;;;;;3.75;2.60;;;;;;;22.62;71.98;99236.91;4437521;32;31367;-81
2022/07/05 10:45:00;;;;;;;4.15;2.60;;;;;;;22.53;72.03;99238.31;4443785;32;34639;-80
2022/07/05 10:47:29;;;;;;;3.50;2.45;;;;;;;22.59;73.76;99247.72;4457341;32;35202;-81
2022/07/05 10:50:05;;;;;;;3.33;2.37;;;;;;;22.69;73.69;99242.69;4469441;32;35189;-80
2022/07/05 10:52:33;;;;;;;5.37;3.20;;;;;;;22.78;73.46;99246.56;4471183;32;33559;-80
2022/07/05 10:55:22;;;;;;;4.62;2.62;;;;;;;23.04;72.36;99242.25;4466609;32;34056;-81
2022/07/05 10:58:36;;;;;;;4.32;2.97;;;;;;;23.13;71.85;99247.00;4456226;32;35928;-80
2022/07/05 11:01:19;;;;;;;7.25;3.08;;;;;;;22.87;71.09;99254.81;4418196;32;34314;-79
2022/07/05 11:04:00;;;;;;;4.50;2.60;;;;;;;22.98;71.45;99253.28;4455482;32;34218;-80
2022/07/05 11:06:39;;;;;;;5.43;3.00;;;;;;;22.90;71.49;99262.56;4465799;32;33809;-81
2022/07/05 11:09:10;;;;;;;5.15;3.00;;;;;;;22.98;70.95;99264.75;4470966;32;35442;-81
2022/07/05 11:11:41;;;;;;;5.60;3.30;;;;;;;23.30;70.35;99269.84;4469963;32;34526;-81
2022/07/05 11:14:31;;;;;;;6.05;3.12;;;;;;;23.08;71.62;99271.22;4458951;32;34497;-81
2022/07/05 11:17:16;;;;;;;5.62;3.83;;;;;;;23.17;71.59;99275.09;4460198;32;34025;-80
2022/07/05 11:20:06;;;;;;;5.70;3.85;;;;;;;23.51;71.25;99270.25;4435293;32;35033;-80
2022/07/05 11:22:36;;;;;;;9.05;4.05;;;;;;;22.96;72.71;99265.78;4456804;32;34495;-81
2022/07/05 11:25:05;;;;;;;6.22;3.90;;;;;;;23.15;72.70;99265.50;4455687;32;33219;-81
2022/07/05 11:27:34;;;;;;;6.32;4.53;;;;;;;23.01;72.14;99255.72;4456946;32;34041;-81
2022/07/05 11:30:02;;;;;;;5.85;3.80;;;;;;;22.58;74.32;99240.69;4442207;32;35111;-80
2022/07/05 11:32:30;;;;;;;6.57;3.72;;;;;;;22.82;73.64;99222.38;4470692;32;34487;-81
2022/07/05 11:35:16;;;;;;;10.20;3.65;;;;;;;22.69;74.45;99211.66;4469416;32;33605;-80
2022/07/05 11:38:04;;;;;;;4.60;3.85;;;;;;;22.70;77.38;99217.84;4443920;32;33356;-80
2022/07/05 11:40:53;;;;;;;6.20;3.83;;;;;;;23.01;75.45;99222.09;4469484;32;35098;-81
2022/07/05 11:43:28;;;;;;;6.43;3.80;;;;;;;23.21;74.48;99231.44;4457566;32;34173;-81
2022/07/05 11:45:58;;;;;;;5.12;3.65;;;;;;;23.02;75.05;99236.19;4461689;32;33464;-81
2022/07/05 11:48:29;;;;;;;6.37;4.47;;;;;;;22.87;76.61;99236.22;4470749;32;33901;-81
2022/07/05 11:50:59;;;;;;;5.53;4.07;;;;;;;22.93;75.19;99248.25;4469097;32;35128;-80
2022/07/05 11:53:31;;;;;;;5.70;3.45;;;;;;;22.95;75.46;99249.00;4470695;32;34593;-80
2022/07/05 11:56:19;;;;;;;5.12;3.75;;;;;;;23.20;74.16;99248.31;4452914;32;33483;-80
2022/07/05 11:58:47;;;;;;;5.80;4.07;;;;;;;23.48;72.21;99225.28;4446965;32;34635;-80
2022/07/05 12:01:15;;;;;;;5.45;3.72;;;;;;;23.41;72.38;99218.66;4449526;32;35022;-81
2022/07/05 12:03:55;;;;;;;6.70;4.00;;;;;;;23.01;73.72;99214.13;4456616;32;34457;-79